Time;durP1;ratioP1;P1;durP2;ratioP2;P2;SDS_P1;SDS_P2;PMS_P1;PMS_P2;Temp;Humidity;BMP_temperature;BMP_pressure;BME280_temperature;BME280_humidity;BME280_pressure;Samples;Min_cycle;Max_cycle;Signal;HPM_P1;HPM_P2
2023/01/26 00:01:20;;;;;;;69.88;24.77;;;;;;;-0.81;100.00;102575.47;6188933;23;20056;-74
2023/01/26 00:03:47;;;;;;;77.28;26.27;;;;;;;-0.80;100.00;102575.13;6188994;23;20367;-74
2023/01/26 00:06:15;;;;;;;74.88;24.27;;;;;;;-0.78;100.00;102569.59;6162196;23;20057;-74
2023/01/26 00:08:44;;;;;;;73.63;24.58;;;;;;;-0.80;100.00;102572.50;6162273;23;20076;-75
2023/01/26 00:11:13;;;;;;;73.82;22.52;;;;;;;-0.82;100.00;102571.31;6162749;23;20044;-74
2023/01/26 00:13:40;;;;;;;73.45;23.95;;;;;;;-0.84;100.00;102576.09;6189066;23;20096;-74
2023/01/26 00:16:12;;;;;;;71.90;24.17;;;;;;;-0.83;100.00;102572.41;6189338;23;20013;-74
2023/01/26 00:18:40;;;;;;;71.25;23.17;;;;;;;-0.79;100.00;102573.28;6189310;23;20456;-74
2023/01/26 00:21:10;;;;;;;65.88;23.63;;;;;;;-0.79;100.00;102563.59;6162727;23;20014;-74
2023/01/26 00:23:37;;;;;;;62.38;22.88;;;;;;;-0.74;100.00;102562.63;6138594;23;20088;-74
2023/01/26 00:26:12;;;;;;;69.93;25.63;;;;;;;-0.73;100.00;102561.56;6189836;23;20025;-74
2023/01/26 00:28:39;;;;;;;74.43;24.83;;;;;;;-0.71;100.00;102562.00;6188979;23;20476;-75
2023/01/26 00:31:12;;;;;;;69.10;23.90;;;;;;;-0.69;100.00;102554.63;6188863;23;20017;-75
2023/01/26 00:33:39;;;;;;;65.80;22.48;;;;;;;-0.66;100.00;102551.38;6189084;23;20146;-75
2023/01/26 00:36:09;;;;;;;55.75;21.65;;;;;;;-0.68;100.00;102546.44;6188404;23;20020;-75
2023/01/26 00:38:35;;;;;;;59.83;22.70;;;;;;;-0.72;100.00;102545.56;6188847;23;20132;-75
2023/01/26 00:41:02;;;;;;;59.90;21.33;;;;;;;-0.72;100.00;102547.41;6189001;23;20021;-75
2023/01/26 00:43:28;;;;;;;55.30;20.40;;;;;;;-0.72;100.00;102539.56;6162084;23;20483;-75
2023/01/26 00:45:55;;;;;;;56.53;20.52;;;;;;;-0.73;100.00;102536.16;6162199;23;20469;-75
2023/01/26 00:48:22;;;;;;;58.33;21.08;;;;;;;-0.70;100.00;102529.53;6189107;23;20065;-75
2023/01/26 00:50:51;;;;;;;59.00;21.75;;;;;;;-0.72;100.00;102531.69;6170916;23;20082;-75
2023/01/26 00:53:17;;;;;;;57.40;21.05;;;;;;;-0.71;100.00;102533.25;6189350;23;20041;-75
2023/01/26 00:55:44;;;;;;;57.22;20.83;;;;;;;-0.70;100.00;102529.53;6188965;23;20018;-75
2023/01/26 00:58:11;;;;;;;59.50;21.70;;;;;;;-0.72;100.00;102535.09;6187076;23;20018;-75
2023/01/26 01:00:38;;;;;;;61.45;20.85;;;;;;;-0.68;100.00;102538.59;6188551;23;20014;-75
2023/01/26 01:03:05;;;;;;;57.05;22.17;;;;;;;-0.67;100.00;102540.13;6187039;23;20041;-75
2023/01/26 01:05:32;;;;;;;57.63;20.55;;;;;;;-0.65;100.00;102546.91;6211470;23;20057;-75
2023/01/26 01:07:59;;;;;;;58.30;22.35;;;;;;;-0.65;100.00;102526.75;6188711;23;20523;-75
2023/01/26 01:10:26;;;;;;;56.50;20.02;;;;;;;-0.65;100.00;102529.34;6187079;23;20458;-75
2023/01/26 01:12:53;;;;;;;55.35;20.50;;;;;;;-0.67;100.00;102521.81;6188731;23;20146;-75
2023/01/26 01:15:22;;;;;;;56.88;20.23;;;;;;;-0.66;100.00;102525.22;6162796;23;20025;-75
2023/01/26 01:17:49;;;;;;;56.97;21.02;;;;;;;-0.65;100.00;102523.34;6189160;23;20018;-75
2023/01/26 01:20:15;;;;;;;55.88;20.15;;;;;;;-0.62;100.00;102530.56;6189306;23;20017;-75
2023/01/26 01:22:42;;;;;;;51.63;19.63;;;;;;;-0.64;100.00;102525.66;6189375;23;20096;-75
2023/01/26 01:25:09;;;;;;;55.80;19.83;;;;;;;-0.67;100.00;102523.69;6190111;23;20014;-75
2023/01/26 01:27:36;;;;;;;49.35;18.00;;;;;;;-0.69;100.00;102524.00;6189029;23;20112;-75
2023/01/26 01:30:06;;;;;;;47.63;19.58;;;;;;;-0.70;100.00;102519.06;6188375;23;20045;-75
2023/01/26 01:32:38;;;;;;;42.53;17.55;;;;;;;-0.72;100.00;102518.63;6188498;23;20025;-74
2023/01/26 01:35:05;;;;;;;49.33;19.25;;;;;;;-0.71;100.00;102518.31;6186479;23;20017;-75
2023/01/26 01:37:32;;;;;;;48.03;18.80;;;;;;;-0.72;100.00;102516.00;6188231;23;20045;-75
2023/01/26 01:39:59;;;;;;;51.05;18.45;;;;;;;-0.72;100.00;102516.00;6187149;23;20321;-75
2023/01/26 01:42:26;;;;;;;52.17;19.48;;;;;;;-0.71;100.00;102515.69;6188031;23;20082;-75
2023/01/26 01:45:24;;;;;;;43.92;17.48;;;;;;;-0.70;100.00;102514.63;6188856;23;20503;-76
2023/01/26 01:47:58;;;;;;;41.38;17.08;;;;;;;-0.70;100.00;102517.22;6186711;23;20104;-75
2023/01/26 01:50:25;;;;;;;47.75;18.17;;;;;;;-0.69;100.00;102516.16;6188112;23;20439;-74
2023/01/26 01:52:55;;;;;;;47.72;17.40;;;;;;;-0.68;100.00;102512.44;6188714;23;20157;-75
2023/01/26 01:55:24;;;;;;;37.85;15.75;;;;;;;-0.69;100.00;102516.16;6188660;23;20080;-75
2023/01/26 01:57:54;;;;;;;50.97;18.17;;;;;;;-0.71;100.00;102512.31;6188703;23;20040;-75
2023/01/26 02:00:23;;;;;;;48.55;17.10;;;;;;;-0.68;100.00;102512.44;6161826;23;20026;-75
2023/01/26 02:03:17;;;;;;;50.50;17.92;;;;;;;-0.69;100.00;102505.69;6161156;23;20080;-75
2023/01/26 02:06:03;;;;;;;43.83;17.55;;;;;;;-0.68;100.00;102511.69;6188341;23;20018;-75
2023/01/26 02:08:37;;;;;;;39.85;16.55;;;;;;;-0.66;100.00;102506.91;6187901;23;20021;-75
2023/01/26 02:11:09;;;;;;;46.22;18.27;;;;;;;-0.64;100.00;102509.97;6188802;23;20020;-75
2023/01/26 02:13:38;;;;;;;44.53;17.10;;;;;;;-0.63;100.00;102503.63;6161717;23;20406;-75
2023/01/26 02:16:04;;;;;;;39.40;16.38;;;;;;;-0.64;100.00;102502.09;6188526;23;20403;-75
2023/01/26 02:18:31;;;;;;;48.17;18.55;;;;;;;-0.66;100.00;102506.91;6187265;23;20020;-75
2023/01/26 02:21:03;;;;;;;42.38;17.17;;;;;;;-0.66;100.00;102499.03;6161770;23;20018;-75
2023/01/26 02:24:00;;;;;;;53.00;18.10;;;;;;;-0.65;100.00;102497.97;6160838;23;20053;-74
2023/01/26 02:26:30;;;;;;;38.20;15.18;;;;;;;-0.63;100.00;102501.03;6160855;23;20414;-75
2023/01/26 02:28:57;;;;;;;47.00;16.25;;;;;;;-0.57;100.00;102507.59;6161465;23;20448;-75
2023/01/26 02:31:26;;;;;;;43.22;17.88;;;;;;;-0.57;100.00;102504.97;6160372;23;20017;-75
2023/01/26 02:33:54;;;;;;;51.40;19.67;;;;;;;-0.58;100.00;102505.31;6161429;23;20033;-75
2023/01/26 02:36:27;;;;;;;44.50;18.20;;;;;;;-0.59;100.00;102507.16;6161544;23;20017;-75
2023/01/26 02:39:02;;;;;;;45.67;17.42;;;;;;;-0.59;100.00;102501.16;6161699;23;20022;-75
2023/01/26 02:44:23;;;;;;;45.30;17.15;;;;;;;-0.63;100.00;102501.03;6154379;23;20029;-74
2023/01/26 02:46:49;;;;;;;41.20;16.60;;;;;;;-0.57;100.00;102512.84;6162698;23;20014;-74
2023/01/26 02:52:03;;;;;;;48.05;18.98;;;;;;;-0.59;100.00;102509.00;6187157;23;20070;-74
2023/01/26 02:57:16;;;;;;;48.92;18.75;;;;;;;-0.56;100.00;102508.38;6189377;23;20018;-74
2023/01/26 02:59:43;;;;;;;50.45;19.65;;;;;;;-0.53;100.00;102518.19;6187398;23;20014;-74
2023/01/26 03:02:12;;;;;;;45.35;17.90;;;;;;;-0.53;100.00;102518.97;6186797;23;20073;-74
2023/01/26 03:04:40;;;;;;;46.05;18.25;;;;;;;-0.53;100.00;102516.34;6187447;23;20048;-74
2023/01/26 03:07:06;;;;;;;53.35;17.90;;;;;;;-0.58;100.00;102523.63;6187862;23;20108;-74
2023/01/26 03:09:33;;;;;;;49.22;18.63;;;;;;;-0.60;100.00;102518.69;6187290;23;20021;-74
2023/01/26 03:12:00;;;;;;;51.20;19.35;;;;;;;-0.58;100.00;102515.78;6189645;23;20354;-74
2023/01/26 03:14:27;;;;;;;54.15;17.85;;;;;;;-0.60;100.00;102513.47;6187142;23;20378;-74
2023/01/26 03:16:54;;;;;;;49.00;20.50;;;;;;;-0.56;100.00;102521.44;6187143;23;20018;-74
2023/01/26 03:27:46;;;;;;;43.75;17.42;;;;;;;-0.49;100.00;102517.22;6186837;23;20035;-74
2023/01/26 03:30:17;;;;;;;52.63;18.35;;;;;;;-0.49;100.00;102513.84;6211906;23;20456;-74
2023/01/26 03:32:45;;;;;;;;;;;;;;;-0.48;100.00;102513.53;6187995;23;20577;-74
2023/01/26 03:35:14;;;;;;;46.08;17.35;;;;;;;-0.47;100.00;102515.06;6189262;23;19924;-74
2023/01/26 03:37:42;;;;;;;44.33;17.35;;;;;;;-0.47;100.00;102517.69;6187317;23;20025;-74
2023/01/26 03:56:54;;;;;;;43.80;16.55;;;;;;;-0.40;100.00;102509.31;6156887;23;20460;-75
2023/01/26 03:59:36;;;;;;;42.78;16.98;;;;;;;-0.39;100.00;102503.75;6155991;23;20173;-75
2023/01/26 04:10:29;;;;;;;35.60;15.82;;;;;;;-0.39;100.00;102497.75;6130980;23;20172;-75
2023/01/26 04:21:34;;;;;;;36.85;15.07;;;;;;;-0.36;100.00;102518.81;6212629;23;20018;-75
2023/01/26 04:24:12;;;;;;;42.33;15.43;;;;;;;-0.35;100.00;102514.34;6187711;23;20017;-75
2023/01/26 04:26:43;;;;;;;34.70;14.63;;;;;;;-0.39;100.00;102514.19;6186949;23;20017;-75
2023/01/26 04:29:16;;;;;;;42.80;15.85;;;;;;;-0.38;100.00;102507.88;6186591;23;20116;-74
2023/01/26 04:31:44;;;;;;;37.85;15.82;;;;;;;-0.38;100.00;102520.97;6187212;23;20507;-74
2023/01/26 04:34:14;;;;;;;38.50;14.63;;;;;;;-0.34;100.00;102528.94;6187150;23;20440;-74
2023/01/26 04:36:42;;;;;;;32.45;14.77;;;;;;;-0.30;100.00;102518.59;6187032;23;20018;-74
2023/01/26 04:39:09;;;;;;;37.33;14.75;;;;;;;-0.31;100.00;102509.22;6187697;23;20025;-74
2023/01/26 04:41:39;;;;;;;39.05;16.77;;;;;;;-0.30;100.00;102505.53;6188169;23;20021;-74
2023/01/26 04:44:10;;;;;;;38.88;15.88;;;;;;;-0.30;100.00;102505.53;6187680;23;20014;-73
2023/01/26 04:46:37;;;;;;;39.08;14.85;;;;;;;-0.32;100.00;102512.94;6187333;23;20025;-74
2023/01/26 04:49:04;;;;;;;37.00;16.17;;;;;;;-0.31;100.00;102501.38;6187322;23;20025;-74
2023/01/26 04:51:33;;;;;;;38.72;16.55;;;;;;;-0.34;100.00;102506.16;6186333;23;20022;-74
2023/01/26 04:54:00;;;;;;;37.95;15.48;;;;;;;-0.33;100.00;102504.31;6189119;23;20022;-75
2023/01/26 04:56:28;;;;;;;37.17;15.77;;;;;;;-0.32;100.00;102502.47;6161219;23;20403;-75
2023/01/26 04:59:03;;;;;;;35.00;15.10;;;;;;;-0.30;100.00;102501.06;6187122;23;20061;-76
2023/01/26 05:01:31;;;;;;;32.92;14.48;;;;;;;-0.29;100.00;102497.34;6186529;23;20013;-77
2023/01/26 05:03:59;;;;;;;38.38;15.10;;;;;;;-0.32;100.00;102497.22;6212650;23;20036;-76
2023/01/26 05:06:27;;;;;;;33.20;14.52;;;;;;;-0.27;100.00;102492.56;6186408;23;20447;-73
2023/01/26 05:08:55;;;;;;;39.28;16.25;;;;;;;-0.24;100.00;102486.69;6186912;23;20061;-74
2023/01/26 05:11:22;;;;;;;40.58;16.23;;;;;;;-0.24;100.00;102480.69;6162032;23;20022;-74
2023/01/26 05:14:03;;;;;;;39.95;16.17;;;;;;;-0.25;100.00;102489.63;6165927;23;20018;-74
2023/01/26 05:16:48;;;;;;;39.95;16.40;;;;;;;-0.23;100.00;102487.44;6187332;23;20097;-74
2023/01/26 05:19:22;;;;;;;42.50;16.02;;;;;;;-0.24;100.00;102478.06;6189165;23;20435;-74
2023/01/26 05:21:56;;;;;;;36.03;14.88;;;;;;;-0.23;100.00;102475.13;6187681;23;20020;-74
2023/01/26 05:24:23;;;;;;;41.35;16.10;;;;;;;-0.22;100.00;102473.28;6186799;23;20021;-74
2023/01/26 05:27:19;;;;;;;35.45;15.63;;;;;;;-0.20;100.00;102481.56;6188459;23;20460;-75
2023/01/26 05:29:38;;;;;;;37.47;15.35;;;;;;;-0.19;100.00;102476.00;6186887;23;20029;-75
2023/01/26 05:32:05;;;;;;;40.72;16.20;;;;;;;-0.19;100.00;102478.63;6187373;23;20554;-75
2023/01/26 05:34:32;;;;;;;40.67;15.15;;;;;;;-0.17;100.00;102486.16;6186604;23;20072;-75
2023/01/26 05:36:59;;;;;;;42.10;15.75;;;;;;;-0.14;100.00;102481.03;6187241;23;20025;-74
2023/01/26 05:39:25;;;;;;;40.78;16.23;;;;;;;-0.12;100.00;102484.09;6186257;23;20030;-74
2023/01/26 05:41:56;;;;;;;42.92;16.58;;;;;;;-0.10;100.00;102481.94;6186525;23;20017;-75
2023/01/26 05:44:41;;;;;;;38.25;14.65;;;;;;;-0.10;100.00;102481.16;6188865;23;20021;-75
2023/01/26 05:47:11;;;;;;;37.85;15.23;;;;;;;-0.09;100.00;102480.06;6186551;23;20021;-75
2023/01/26 05:49:41;;;;;;;35.90;15.68;;;;;;;-0.06;100.00;102488.06;6186437;23;20500;-75
2023/01/26 05:52:15;;;;;;;37.65;16.60;;;;;;;-0.02;100.00;102490.78;6191623;23;20048;-75
2023/01/26 05:54:42;;;;;;;40.40;16.08;;;;;;;-0.03;100.00;102491.88;6218173;23;20040;-75
2023/01/26 05:57:09;;;;;;;42.78;17.60;;;;;;;-0.06;100.00;102495.91;6192022;23;20013;-75
2023/01/26 05:59:39;;;;;;;41.37;16.60;;;;;;;-0.07;100.00;102502.22;6191505;23;20080;-74
2023/01/26 06:02:10;;;;;;;41.63;15.90;;;;;;;-0.08;100.00;102494.69;6192018;23;20088;-75
2023/01/26 06:04:37;;;;;;;37.85;16.15;;;;;;;-0.07;100.00;102504.09;6191724;23;20024;-75
2023/01/26 06:07:04;;;;;;;36.10;15.07;;;;;;;-0.04;100.00;102503.44;6191856;23;20024;-75
2023/01/26 06:09:35;;;;;;;37.05;15.95;;;;;;;-0.01;100.00;102508.03;6190633;23;20511;-75
2023/01/26 06:12:18;;;;;;;38.83;15.90;;;;;;;-0.01;100.00;102508.78;6192072;23;20021;-74
2023/01/26 06:14:57;;;;;;;41.35;15.15;;;;;;;0.01;100.00;102511.06;6219234;23;20029;-75
2023/01/26 06:17:40;;;;;;;41.60;15.60;;;;;;;0.02;100.00;102503.97;6192471;23;20064;-74
2023/01/26 06:20:09;;;;;;;37.67;15.05;;;;;;;0.00;100.00;102501.69;6192926;23;20102;-75
2023/01/26 06:22:37;;;;;;;38.90;15.32;;;;;;;0.03;100.00;102508.88;6192678;23;20021;-75
2023/01/26 06:25:04;;;;;;;39.05;15.27;;;;;;;0.01;100.00;102516.28;6219687;23;20454;-74
2023/01/26 06:27:49;;;;;;;36.25;16.08;;;;;;;0.02;100.00;102512.59;6219598;23;20021;-75
2023/01/26 06:30:24;;;;;;;36.92;14.93;;;;;;;0.02;100.00;102509.97;6192383;23;20029;-74
2023/01/26 06:32:52;;;;;;;39.65;15.65;;;;;;;-0.01;100.00;102518.50;6192985;23;20100;-75
2023/01/26 06:35:19;;;;;;;39.17;14.70;;;;;;;0.00;100.00;102517.41;6192644;23;20358;-75
2023/01/26 06:37:49;;;;;;;36.53;15.35;;;;;;;0.00;100.00;102520.78;6192963;23;20428;-75
2023/01/26 06:40:16;;;;;;;36.50;15.18;;;;;;;0.06;100.00;102513.47;6192914;23;20017;-75
2023/01/26 06:42:47;;;;;;;38.50;16.60;;;;;;;0.08;100.00;102518.41;6219625;23;20017;-76
2023/01/26 06:45:15;;;;;;;;;;;;;;;0.11;100.00;102526.38;6193034;23;20048;-75
2023/01/26 06:47:49;;;;;;;36.88;13.80;;;;;;;0.12;100.00;102527.13;6192518;23;19920;-75
2023/01/26 06:50:19;;;;;;;36.72;16.05;;;;;;;0.12;100.00;102527.13;6211972;23;20100;-75
2023/01/26 06:52:50;;;;;;;39.38;14.52;;;;;;;0.13;100.00;102526.81;6189062;23;20013;-76
2023/01/26 06:55:37;;;;;;;37.38;15.18;;;;;;;0.12;100.00;102535.75;6162566;23;20044;-75
2023/01/26 06:58:30;;;;;;;40.30;15.77;;;;;;;0.14;100.00;102530.19;6184232;23;20567;-75
2023/01/26 07:01:19;;;;;;;42.03;15.93;;;;;;;0.13;100.00;102534.66;6189294;23;20025;-75
2023/01/26 07:03:49;;;;;;;33.47;14.98;;;;;;;0.13;100.00;102534.66;6189510;23;20397;-74
2023/01/26 07:06:16;;;;;;;42.00;15.75;;;;;;;0.12;100.00;102538.38;6189535;23;20014;-76
2023/01/26 07:08:42;;;;;;;37.67;15.90;;;;;;;0.12;100.00;102537.59;6188695;23;20520;-75
2023/01/26 07:11:11;;;;;;;36.15;15.82;;;;;;;0.16;100.00;102534.03;6189733;23;20029;-75
2023/01/26 07:13:38;;;;;;;36.55;14.52;;;;;;;0.15;100.00;102535.09;6189676;23;20024;-75
2023/01/26 07:16:12;;;;;;;34.22;14.52;;;;;;;0.18;100.00;102529.22;6190511;23;20021;-75
2023/01/26 07:18:39;;;;;;;37.55;15.85;;;;;;;0.21;100.00;102536.44;6190480;23;20025;-76
2023/01/26 07:21:11;;;;;;;37.67;15.85;;;;;;;0.23;100.00;102536.88;6190365;23;20017;-76
2023/01/26 07:23:39;;;;;;;36.58;14.82;;;;;;;0.26;100.00;102540.72;6190567;23;20019;-76
2023/01/26 07:26:06;;;;;;;36.65;15.10;;;;;;;0.28;100.00;102539.28;6190569;23;20017;-76
2023/01/26 07:28:35;;;;;;;40.08;15.63;;;;;;;0.29;100.00;102542.69;6162965;23;20017;-76
2023/01/26 07:31:05;;;;;;;43.17;15.40;;;;;;;0.25;100.00;102542.56;6190239;23;20033;-76
2023/01/26 07:33:33;;;;;;;38.70;15.35;;;;;;;0.25;100.00;102549.66;6190103;23;20467;-77
2023/01/26 07:36:01;;;;;;;38.63;16.20;;;;;;;0.27;100.00;102553.47;6163040;23;20014;-75
2023/01/26 07:38:28;;;;;;;43.42;15.48;;;;;;;0.30;100.00;102555.44;6163578;23;20444;-77
2023/01/26 07:40:55;;;;;;;38.53;15.68;;;;;;;0.31;100.00;102553.59;6190361;23;20518;-77
2023/01/26 07:43:21;;;;;;;50.40;17.33;;;;;;;0.31;100.00;102558.84;6189940;23;20084;-77
2023/01/26 07:45:53;;;;;;;39.22;15.63;;;;;;;0.29;100.00;102559.16;6190274;23;20018;-77
2023/01/26 07:48:21;;;;;;;42.47;16.35;;;;;;;0.31;100.00;102566.69;6189701;23;20446;-77
2023/01/26 07:50:48;;;;;;;42.47;16.48;;;;;;;0.35;100.00;102564.19;6188996;23;20092;-78
2023/01/26 07:53:20;;;;;;;48.50;15.20;;;;;;;0.38;100.00;102569.56;6189778;23;20014;-79
2023/01/26 07:55:49;;;;;;;44.30;15.80;;;;;;;0.39;100.00;102570.31;6190482;23;20017;-77
2023/01/26 07:58:17;;;;;;;43.80;16.00;;;;;;;0.41;100.00;102568.13;6189652;23;20045;-78
2023/01/26 08:00:46;;;;;;;44.50;16.42;;;;;;;0.44;100.00;102567.47;6163315;23;20440;-77
2023/01/26 08:03:13;;;;;;;43.90;16.27;;;;;;;0.46;100.00;102571.28;6189688;23;20018;-78
2023/01/26 08:05:39;;;;;;;43.17;16.20;;;;;;;0.48;100.00;102573.59;6189555;23;20017;-78
2023/01/26 08:08:06;;;;;;;43.70;16.75;;;;;;;0.49;100.00;102565.41;6139033;23;20072;-78
2023/01/26 08:10:33;;;;;;;51.00;17.33;;;;;;;0.50;100.00;102569.56;6189896;23;20025;-76
2023/01/26 08:13:00;;;;;;;47.17;16.98;;;;;;;0.52;100.00;102559.50;6190400;23;20014;-77
2023/01/26 08:15:27;;;;;;;41.50;15.60;;;;;;;0.54;100.00;102567.81;6163512;23;20013;-76
2023/01/26 08:17:54;;;;;;;37.67;16.42;;;;;;;0.56;100.00;102576.13;6190191;23;20435;-76
2023/01/26 08:20:21;;;;;;;40.38;14.68;;;;;;;0.61;100.00;102580.38;6189248;23;20052;-75
2023/01/26 08:22:47;;;;;;;47.80;15.98;;;;;;;0.65;100.00;102582.03;6190019;23;20073;-76
2023/01/26 08:25:14;;;;;;;44.00;16.17;;;;;;;0.69;100.00;102576.91;6190241;23;20010;-76
2023/01/26 08:27:40;;;;;;;40.13;14.80;;;;;;;0.74;100.00;102579.31;6190376;23;20017;-75
2023/01/26 08:30:07;;;;;;;42.40;16.40;;;;;;;0.78;100.00;102585.44;6164082;23;20025;-75
2023/01/26 08:32:34;;;;;;;54.15;17.40;;;;;;;0.82;100.00;102580.28;6163256;23;20073;-75
2023/01/26 08:35:01;;;;;;;51.60;17.10;;;;;;;0.85;100.00;102588.25;6189629;23;20045;-75
2023/01/26 08:37:27;;;;;;;49.22;16.88;;;;;;;0.85;100.00;102577.00;6189532;23;20423;-76
2023/01/26 08:39:54;;;;;;;51.40;18.00;;;;;;;0.88;100.00;102579.72;6189856;23;20526;-76
2023/01/26 08:42:20;;;;;;;49.38;17.98;;;;;;;0.92;100.00;102580.59;6189723;23;20013;-75
2023/01/26 08:44:48;;;;;;;45.95;17.23;;;;;;;0.96;100.00;102584.09;6189725;23;20018;-75
2023/01/26 08:47:14;;;;;;;55.35;18.02;;;;;;;0.99;100.00;102591.31;6189447;23;20444;-75
2023/01/26 08:49:41;;;;;;;48.78;17.58;;;;;;;1.03;100.00;102590.66;6189231;23;20018;-74
2023/01/26 08:52:07;;;;;;;49.97;17.50;;;;;;;1.08;100.00;102593.06;6190127;23;20018;-75
2023/01/26 08:54:34;;;;;;;37.92;15.77;;;;;;;1.10;100.00;102593.50;6189681;23;20020;-75
2023/01/26 08:57:00;;;;;;;46.53;16.70;;;;;;;1.19;100.00;102596.78;6190184;23;20020;-76
2023/01/26 08:59:27;;;;;;;38.35;15.07;;;;;;;1.23;100.00;102595.00;6163536;23;20028;-75
2023/01/26 09:01:54;;;;;;;47.35;15.73;;;;;;;1.29;100.00;102591.84;6190162;23;20018;-76
2023/01/26 09:04:21;;;;;;;43.70;15.70;;;;;;;1.35;100.00;102597.63;6189400;23;20348;-77
2023/01/26 09:06:47;;;;;;;35.72;14.88;;;;;;;1.38;100.00;102591.72;6190308;23;20069;-76
2023/01/26 09:09:14;;;;;;;41.38;15.57;;;;;;;1.44;100.00;102602.75;6189859;23;20069;-77
2023/01/26 09:11:41;;;;;;;42.70;15.05;;;;;;;1.50;100.00;102599.56;6189988;23;20059;-78
2023/01/26 09:14:07;;;;;;;37.50;13.50;;;;;;;1.58;100.00;102600.53;6189815;23;20021;-77
2023/01/26 09:16:34;;;;;;;38.35;13.88;;;;;;;1.63;100.00;102597.66;6188444;23;20017;-78
2023/01/26 09:19:00;;;;;;;37.38;13.07;;;;;;;1.70;100.00;102592.63;6189199;23;20440;-78
2023/01/26 09:21:27;;;;;;;39.83;13.25;;;;;;;1.80;100.00;102600.03;6189406;23;20017;-77
2023/01/26 09:23:55;;;;;;;43.97;13.45;;;;;;;1.87;100.00;102596.84;6163008;23;20013;-77
2023/01/26 09:26:21;;;;;;;33.00;11.88;;;;;;;1.94;100.00;102603.03;6189513;23;20395;-78
2023/01/26 09:28:50;;;;;;;33.65;11.27;;;;;;;2.04;100.00;102608.91;6163416;23;20268;-77
2023/01/26 09:31:16;;;;;;;39.72;12.57;;;;;;;2.10;100.00;102600.44;6189000;23;20477;-78
2023/01/26 09:33:43;;;;;;;34.55;10.85;;;;;;;2.18;100.00;102598.78;6188801;23;20093;-78
2023/01/26 09:36:11;;;;;;;34.50;10.77;;;;;;;2.22;100.00;102600.38;6188972;23;20013;-77
2023/01/26 09:38:39;;;;;;;36.70;10.68;;;;;;;2.29;100.00;102600.56;6189531;23;20405;-77
2023/01/26 09:41:46;;;;;;;39.05;10.93;;;;;;;2.39;100.00;102604.56;6189561;23;20411;-78
2023/01/26 09:44:22;;;;;;;28.05;8.98;;;;;;;2.50;100.00;102602.19;6189237;23;20017;-77
2023/01/26 09:47:11;;;;;;;35.80;9.10;;;;;;;2.61;100.00;102609.25;6189106;23;20443;-75
2023/01/26 09:49:55;;;;;;;25.58;8.75;;;;;;;2.70;100.00;102619.59;6188725;23;20017;-73
2023/01/26 09:52:29;;;;;;;29.50;7.82;;;;;;;2.83;100.00;102617.63;6189350;23;20021;-74
2023/01/26 09:55:02;;;;;;;26.58;8.63;;;;;;;2.93;100.00;102614.50;6189366;23;20018;-75
2023/01/26 09:57:36;;;;;;;23.58;7.20;;;;;;;3.03;100.00;102610.59;6189149;23;20018;-78
2023/01/26 10:00:08;;;;;;;29.70;7.03;;;;;;;3.14;100.00;102620.25;6189190;23;20076;-72
2023/01/26 10:02:43;;;;;;;19.10;6.65;;;;;;;3.22;100.00;102621.16;6188661;23;20419;-74
2023/01/26 10:05:48;;;;;;;22.30;6.00;;;;;;;3.29;100.00;102616.81;6189515;23;20018;-75
2023/01/26 10:08:34;;;;;;;16.05;4.72;;;;;;;3.37;100.00;102623.00;6188561;23;20030;-76
2023/01/26 10:11:06;;;;;;;23.30;4.85;;;;;;;3.45;100.00;102622.03;6187373;23;20026;-76
2023/01/26 10:13:33;;;;;;;20.83;3.80;;;;;;;3.51;100.00;102619.91;6187042;23;20021;-76
2023/01/26 10:16:05;;;;;;;30.92;4.45;;;;;;;3.59;100.00;102619.72;6188856;23;20024;-76
2023/01/26 10:18:39;;;;;;;22.98;4.03;;;;;;;3.66;100.00;102619.81;6187200;23;20105;-76
2023/01/26 10:21:09;;;;;;;18.45;2.75;;;;;;;3.77;100.00;102612.13;6189337;23;20408;-76
2023/01/26 10:23:35;;;;;;;17.08;2.75;;;;;;;3.86;100.00;102617.22;6188806;23;20065;-78
2023/01/26 10:26:16;;;;;;;15.27;3.30;;;;;;;3.94;100.00;102619.63;6189588;23;20092;-78
2023/01/26 10:28:45;;;;;;;25.05;3.30;;;;;;;4.04;100.00;102620.94;6189156;23;20509;-79
2023/01/26 10:31:21;;;;;;;22.88;2.78;;;;;;;4.13;100.00;102616.19;6188076;23;20134;-80
2023/01/26 10:34:02;;;;;;;32.60;3.72;;;;;;;4.24;100.00;102619.81;6189200;23;20022;-78
2023/01/26 10:36:30;;;;;;;19.27;3.15;;;;;;;4.31;100.00;102619.94;6189626;23;20013;-77
2023/01/26 10:39:07;;;;;;;25.52;6.30;;;;;;;4.41;100.00;102615.94;6188878;23;20080;-78
2023/01/26 10:41:34;;;;;;;15.85;3.15;;;;;;;4.48;100.00;102615.28;6188425;23;20049;-78
2023/01/26 10:44:14;;;;;;;19.88;3.08;;;;;;;4.52;100.00;102610.84;6189152;23;20418;-78
2023/01/26 10:46:41;;;;;;;21.27;2.92;;;;;;;4.57;100.00;102613.94;6189158;23;20010;-78
2023/01/26 10:49:07;;;;;;;17.88;3.40;;;;;;;4.62;100.00;102611.03;6188819;23;20084;-77
2023/01/26 10:51:39;;;;;;;19.17;3.30;;;;;;;4.68;100.00;102622.03;6187806;23;20634;-77
2023/01/26 10:54:20;;;;;;;15.45;3.28;;;;;;;4.73;100.00;102627.03;6188869;23;20020;-77
2023/01/26 10:56:55;;;;;;;17.00;3.05;;;;;;;4.84;100.00;102627.94;6189164;23;20013;-78
2023/01/26 10:59:25;;;;;;;23.48;2.97;;;;;;;4.95;100.00;102639.41;6187682;23;20491;-78
2023/01/26 11:01:55;;;;;;;11.35;2.53;;;;;;;5.05;100.00;102622.22;6189182;23;20018;-77
2023/01/26 11:04:23;;;;;;;19.37;2.73;;;;;;;5.13;100.00;102633.66;6190153;23;20470;-77
2023/01/26 11:06:50;;;;;;;14.00;2.75;;;;;;;5.21;100.00;102637.91;6190471;23;20093;-79
2023/01/26 11:09:20;;;;;;;16.15;2.70;;;;;;;5.26;100.00;102637.59;6189628;23;20400;-77
2023/01/26 11:12:16;;;;;;;16.17;2.50;;;;;;;5.32;100.00;102636.16;6190354;23;20049;-79
2023/01/26 11:14:59;;;;;;;19.48;3.10;;;;;;;5.41;100.00;102643.84;6190953;23;20013;-78
2023/01/26 11:17:34;;;;;;;16.80;2.30;;;;;;;5.46;100.00;102635.59;6189858;23;20423;-78
2023/01/26 11:20:33;;;;;;;17.52;2.88;;;;;;;5.53;100.00;102638.34;6190174;23;20018;-77
2023/01/26 11:23:07;;;;;;;24.25;3.92;;;;;;;5.60;100.00;102630.47;6190577;23;20021;-77
2023/01/26 11:25:44;;;;;;;12.45;2.35;;;;;;;5.64;100.00;102629.41;6189877;23;20041;-78
2023/01/26 11:28:36;;;;;;;15.55;2.22;;;;;;;5.70;100.00;102622.69;6189414;23;20507;-77
2023/01/26 11:31:21;;;;;;;11.50;2.58;;;;;;;5.75;100.00;102626.91;6190200;23;20407;-78
2023/01/26 11:34:14;;;;;;;10.18;2.10;;;;;;;5.79;100.00;102632.22;6190076;23;20017;-78
2023/01/26 11:37:05;;;;;;;13.63;2.58;;;;;;;5.83;100.00;102623.22;6190309;23;20013;-78
2023/01/26 11:39:49;;;;;;;10.60;2.20;;;;;;;5.85;100.00;102620.22;6189586;23;20018;-78
2023/01/26 11:42:43;;;;;;;12.93;2.47;;;;;;;5.83;100.00;102617.19;6162789;23;20281;-79
2023/01/26 11:45:37;;;;;;;21.73;2.28;;;;;;;5.83;100.00;102617.19;6163475;23;20105;-77
2023/01/26 11:48:30;;;;;;;11.18;2.13;;;;;;;5.88;100.00;102624.78;6189948;23;20392;-77
2023/01/26 11:51:09;;;;;;;16.42;2.30;;;;;;;5.90;100.00;102622.56;6176392;23;20025;-78
2023/01/26 11:53:57;;;;;;;10.88;2.47;;;;;;;5.94;99.98;102618.84;6189836;23;20014;-80
2023/01/26 11:56:51;;;;;;;12.70;2.28;;;;;;;5.99;99.77;102612.47;6189831;23;20022;-75
2023/01/26 11:59:28;;;;;;;15.70;1.92;;;;;;;6.03;99.17;102616.66;6189778;23;20095;-76
2023/01/26 12:02:08;;;;;;;23.77;3.22;;;;;;;6.08;98.60;102609.53;6190213;23;20020;-76
2023/01/26 12:04:44;;;;;;;14.75;1.80;;;;;;;6.11;98.08;102601.63;6189830;23;20017;-78
2023/01/26 12:07:18;;;;;;;12.68;1.77;;;;;;;6.14;97.76;102602.78;6189746;23;20022;-76
2023/01/26 12:09:47;;;;;;;17.63;2.33;;;;;;;6.13;97.07;102604.66;6189464;23;20018;-76
2023/01/26 12:12:20;;;;;;;13.63;2.25;;;;;;;6.16;96.84;102603.94;6188377;23;20045;-76
2023/01/26 12:14:57;;;;;;;18.63;2.33;;;;;;;6.20;96.38;102604.75;6189024;23;20515;-76
2023/01/26 12:17:36;;;;;;;14.18;2.40;;;;;;;6.24;96.38;102594.97;6188875;23;20024;-78
2023/01/26 12:20:26;;;;;;;15.55;2.00;;;;;;;6.26;95.02;102597.25;6189291;23;20072;-78